createdAt,value
2023-04-10T00:00:38.156Z,6.88
2023-04-10T00:03:05.127Z,6.13
2023-04-10T00:05:34.533Z,6.85
2023-04-10T00:08:04.082Z,6.07
2023-04-10T00:10:33.453Z,7.65
2023-04-10T00:15:28.864Z,6.38
2023-04-10T00:17:55.712Z,6.50
2023-04-10T00:20:23.267Z,6.03
2023-04-10T00:22:49.968Z,5.50
2023-04-10T00:25:19.193Z,6.32
2023-04-10T00:27:46.099Z,5.78
2023-04-10T00:30:15.017Z,6.28
2023-04-10T00:32:44.144Z,5.97
2023-04-10T00:35:15.648Z,6.10
2023-04-10T00:37:44.462Z,7.53
2023-04-10T00:40:11.405Z,6.57
2023-04-10T00:42:40.370Z,6.28
2023-04-10T00:45:07.403Z,6.80
2023-04-10T00:47:35.252Z,6.57
2023-04-10T00:50:02.030Z,6.43
2023-04-10T00:52:32.237Z,6.70
2023-04-10T00:55:01.036Z,6.72
2023-04-10T00:57:30.424Z,5.70
2023-04-10T01:02:23.875Z,5.55
2023-04-10T01:04:50.875Z,6.75
2023-04-10T01:07:18.948Z,6.20
2023-04-10T01:09:59.103Z,5.97
2023-04-10T01:12:37.929Z,6.28
2023-04-10T01:15:04.542Z,6.43
2023-04-10T01:17:45.666Z,6.00
2023-04-10T01:20:19.168Z,6.93
2023-04-10T01:23:21.947Z,5.97
2023-04-10T01:25:54.067Z,6.28
2023-04-10T01:28:39.121Z,6.13
2023-04-10T01:31:08.855Z,6.07
2023-04-10T01:33:56.838Z,6.53
2023-04-10T01:36:29.584Z,7.40
2023-04-10T01:38:58.236Z,6.05
2023-04-10T01:41:26.821Z,6.70
2023-04-10T01:44:01.274Z,7.07
2023-04-10T01:46:29.657Z,6.05
2023-04-10T01:48:58.157Z,8.10
2023-04-10T01:51:26.346Z,6.90
2023-04-10T01:53:53.433Z,6.35
2023-04-10T01:56:22.669Z,6.50
2023-04-10T01:58:50.634Z,6.10
2023-04-10T02:01:29.139Z,7.10
2023-04-10T02:03:59.351Z,6.70
2023-04-10T02:09:16.528Z,5.88
2023-04-10T02:11:57.417Z,5.43
2023-04-10T02:14:29.293Z,6.40
2023-04-10T02:17:01.666Z,6.55
2023-04-10T02:19:31.117Z,6.20
2023-04-10T02:22:01.634Z,6.65
2023-04-10T02:24:31.955Z,5.75
2023-04-10T02:26:58.544Z,6.93
2023-04-10T02:29:25.152Z,6.47
2023-04-10T02:31:51.715Z,6.18
2023-04-10T02:34:20.835Z,6.18
2023-04-10T02:36:49.634Z,6.50
2023-04-10T02:39:20.673Z,6.10
2023-04-10T02:41:49.740Z,6.60
2023-04-10T02:44:18.607Z,6.22
2023-04-10T02:46:47.732Z,6.47
2023-04-10T02:49:19.005Z,6.43
2023-04-10T02:51:47.807Z,6.13
2023-04-10T02:54:17.690Z,5.88
2023-04-10T02:56:44.611Z,5.63
2023-04-10T02:59:13.489Z,6.55
2023-04-10T03:01:42.659Z,6.63
2023-04-10T03:04:11.914Z,6.32
2023-04-10T03:09:12.688Z,5.90
2023-04-10T03:11:41.500Z,5.40
2023-04-10T03:14:09.796Z,5.50
2023-04-10T03:16:36.666Z,5.68
2023-04-10T03:19:05.763Z,5.93
2023-04-10T03:21:34.660Z,6.55
2023-04-10T03:24:01.220Z,4.97
2023-04-10T03:26:28.342Z,6.18
2023-04-10T03:28:54.962Z,5.90
2023-04-10T03:31:21.680Z,6.43
2023-04-10T03:33:48.311Z,5.75
2023-04-10T03:36:17.210Z,5.53
2023-04-10T03:38:43.848Z,5.90
2023-04-10T03:41:10.444Z,6.80
2023-04-10T03:43:39.494Z,6.10
2023-04-10T03:46:06.476Z,6.65
2023-04-10T03:48:33.541Z,6.60
2023-04-10T03:51:00.073Z,5.72
2023-04-10T03:53:26.705Z,5.70
2023-04-10T03:55:53.316Z,5.97
2023-04-10T03:58:22.167Z,5.82
2023-04-10T04:00:51.572Z,6.10
2023-04-10T04:05:44.998Z,5.95
2023-04-10T04:08:14.092Z,6.05
2023-04-10T04:10:40.712Z,7.10
2023-04-10T04:13:07.309Z,6.20
2023-04-10T04:15:38.772Z,5.93
2023-04-10T04:18:05.414Z,5.60
2023-04-10T04:20:34.370Z,6.82
2023-04-10T04:23:03.472Z,6.38
2023-04-10T04:25:30.066Z,6.05
2023-04-10T04:27:58.840Z,6.50
2023-04-10T04:30:25.425Z,6.47
2023-04-10T04:32:52.092Z,6.68
2023-04-10T04:35:21.521Z,6.13
2023-04-10T04:40:14.619Z,5.53
2023-04-10T04:42:43.436Z,6.32
2023-04-10T04:45:15.670Z,5.50
2023-04-10T04:47:44.318Z,5.70
2023-04-10T04:50:10.962Z,6.38
2023-04-10T04:52:37.533Z,5.85
2023-04-10T04:55:04.350Z,6.30
2023-04-10T04:57:33.186Z,6.10
2023-04-10T04:59:59.744Z,6.13
2023-04-10T05:02:26.472Z,5.60
2023-04-10T05:04:53.158Z,6.53
2023-04-10T05:07:22.355Z,5.95
2023-04-10T05:09:49.254Z,6.13
2023-04-10T05:12:15.847Z,6.38
2023-04-10T05:14:42.407Z,6.45
2023-04-10T05:17:09.058Z,6.28
2023-04-10T05:19:35.666Z,5.90
2023-04-10T05:22:02.314Z,6.38
2023-04-10T05:24:28.914Z,6.95
2023-04-10T05:26:55.749Z,7.00
2023-04-10T05:29:22.835Z,6.18
2023-04-10T05:31:50.224Z,7.65
2023-04-10T05:34:18.204Z,7.75
2023-04-10T05:36:44.782Z,7.22
2023-04-10T05:39:11.313Z,6.95
2023-04-10T05:41:40.331Z,6.95
2023-04-10T05:44:06.983Z,6.43
2023-04-10T05:46:38.773Z,7.40
2023-04-10T05:49:05.409Z,8.23
2023-04-10T05:51:34.672Z,7.55
2023-04-10T05:54:01.351Z,7.70
2023-04-10T05:56:30.119Z,7.60
2023-04-10T05:58:59.090Z,6.43
2023-04-10T06:01:25.634Z,7.63
2023-04-10T06:03:54.552Z,6.93
2023-04-10T06:06:25.952Z,7.18
2023-04-10T06:08:53.526Z,7.78
2023-04-10T06:11:22.709Z,7.35
2023-04-10T06:13:49.230Z,7.53
2023-04-10T06:16:16.487Z,7.47
2023-04-10T06:18:43.332Z,6.80
2023-04-10T06:21:12.128Z,7.18
2023-04-10T06:23:38.677Z,7.45
2023-04-10T06:26:05.386Z,6.90
2023-04-10T06:28:31.976Z,7.40
2023-04-10T06:30:58.617Z,7.25
2023-04-10T06:33:27.305Z,6.82
2023-04-10T06:35:58.492Z,7.03
2023-04-10T06:38:27.429Z,6.43
2023-04-10T06:40:56.528Z,6.88
2023-04-10T06:43:23.149Z,7.35
2023-04-10T06:45:52.094Z,7.78
2023-04-10T06:48:23.434Z,8.00
2023-04-10T06:50:52.559Z,6.75
2023-04-10T06:53:19.143Z,7.28
2023-04-10T06:55:48.494Z,7.82
2023-04-10T06:58:15.061Z,7.55
2023-04-10T07:00:44.637Z,7.43
2023-04-10T07:03:16.196Z,6.78
2023-04-10T07:05:45.635Z,5.93
2023-04-10T07:08:12.154Z,5.93
2023-04-10T07:10:38.781Z,5.70
2023-04-10T07:13:08.398Z,6.28
2023-04-10T07:15:34.917Z,6.28
2023-04-10T07:18:03.799Z,6.20
2023-04-10T07:20:33.142Z,6.05
2023-04-10T07:22:59.713Z,6.30
2023-04-10T07:25:26.466Z,7.00
2023-04-10T07:27:54.213Z,6.32
2023-04-10T07:30:21.037Z,6.80
2023-04-10T07:32:47.993Z,6.00
2023-04-10T07:35:14.994Z,6.20
2023-04-10T07:37:50.272Z,5.97
2023-04-10T07:42:46.149Z,5.78
2023-04-10T07:45:12.759Z,5.57
2023-04-10T07:47:39.352Z,5.38
2023-04-10T07:50:06.941Z,6.20
2023-04-10T07:52:36.080Z,5.80
2023-04-10T07:57:37.152Z,4.50
2023-04-10T08:00:03.905Z,5.68
2023-04-10T08:02:33.247Z,5.95
2023-04-10T08:05:02.351Z,5.78
2023-04-10T08:09:55.452Z,5.43
2023-04-10T08:12:21.977Z,5.05
2023-04-10T08:14:49.502Z,4.75
2023-04-10T08:17:16.192Z,4.90
2023-04-10T08:19:43.428Z,4.90
2023-04-10T08:22:12.269Z,5.05
2023-04-10T08:24:41.167Z,5.65
2023-04-10T08:27:07.730Z,4.93
2023-04-10T08:29:34.253Z,5.28
2023-04-10T08:32:01.155Z,4.60
2023-04-10T08:34:28.303Z,4.07
2023-04-10T08:36:56.167Z,4.40
2023-04-10T08:39:25.322Z,3.75
2023-04-10T08:41:55.379Z,3.70
2023-04-10T08:44:21.986Z,3.83
2023-04-10T08:46:49.704Z,3.75
2023-04-10T08:49:24.364Z,3.65
2023-04-10T08:52:01.176Z,3.80
2023-04-10T08:54:34.087Z,3.90
2023-04-10T08:57:04.864Z,4.28
2023-04-10T08:59:31.618Z,4.18
2023-04-10T09:01:59.178Z,4.13
2023-04-10T09:04:26.653Z,3.85
2023-04-10T09:06:53.638Z,3.85
2023-04-10T09:09:20.573Z,3.67
2023-04-10T09:12:01.077Z,3.75
2023-04-10T09:21:31.347Z,4.25
2023-04-10T09:24:16.103Z,4.47
2023-04-10T09:26:42.696Z,4.13
2023-04-10T09:29:18.139Z,4.05
2023-04-10T09:31:50.889Z,4.20
2023-04-10T09:34:27.023Z,4.53
2023-04-10T09:36:56.106Z,4.18
2023-04-10T09:46:28.808Z,4.75
2023-04-10T09:49:04.663Z,4.85
2023-04-10T09:51:39.563Z,4.75
2023-04-10T09:54:06.892Z,4.63
2023-04-10T09:56:40.121Z,3.78
2023-04-10T09:59:24.793Z,4.38
2023-04-10T10:02:00.961Z,4.20
2023-04-10T10:04:30.655Z,4.20
2023-04-10T10:07:06.437Z,3.95
2023-04-10T10:09:44.603Z,3.75
2023-04-10T10:19:45.519Z,4.88
2023-04-10T10:22:13.239Z,3.88
2023-04-10T10:24:47.347Z,4.25
2023-04-10T10:27:18.140Z,3.95
2023-04-10T10:29:49.719Z,4.03
2023-04-10T10:32:18.513Z,4.10
2023-04-10T10:34:48.070Z,4.20
2023-04-10T10:37:17.964Z,4.20
2023-04-10T10:39:57.619Z,4.07
2023-04-10T10:42:46.828Z,4.20
2023-04-10T10:45:20.603Z,4.15
2023-04-10T10:47:57.036Z,3.95
2023-04-10T10:50:24.853Z,4.20
2023-04-10T10:52:54.031Z,4.13
2023-04-10T10:58:00.698Z,4.85
2023-04-10T11:00:49.920Z,4.90
2023-04-10T11:03:16.555Z,4.00
2023-04-10T11:05:54.229Z,4.55
2023-04-10T11:08:32.732Z,4.75
2023-04-10T11:11:03.916Z,4.75
2023-04-10T11:13:32.934Z,4.60
2023-04-10T11:18:44.684Z,4.72
2023-04-10T11:21:15.275Z,4.57
2023-04-10T11:23:50.762Z,4.50
2023-04-10T11:26:38.722Z,4.32
2023-04-10T11:29:19.575Z,5.10
2023-04-10T11:31:58.406Z,4.43
2023-04-10T11:34:27.728Z,4.72
2023-04-10T11:36:57.190Z,4.40
2023-04-10T11:39:26.705Z,4.63
2023-04-10T11:41:54.180Z,4.20
2023-04-10T11:44:43.263Z,4.30
2023-04-10T11:47:13.156Z,4.32
2023-04-10T11:49:39.856Z,4.07
2023-04-10T11:52:09.156Z,4.00
2023-04-10T11:54:37.763Z,3.90
2023-04-10T11:57:12.980Z,4.28
2023-04-10T12:02:07.621Z,3.85
2023-04-10T12:04:34.953Z,3.78
2023-04-10T12:07:01.873Z,4.10
2023-04-10T12:09:28.668Z,3.38
2023-04-10T12:11:56.897Z,4.22
2023-04-10T12:14:36.969Z,3.80
2023-04-10T12:17:05.482Z,4.03
2023-04-10T12:19:36.081Z,3.90
2023-04-10T12:22:03.161Z,3.83
2023-04-10T12:24:54.501Z,3.92
2023-04-10T12:27:23.761Z,3.78
2023-04-10T12:29:52.373Z,4.25
2023-04-10T12:32:19.592Z,3.50
2023-04-10T12:34:52.883Z,3.75
2023-04-10T12:37:20.724Z,3.95
2023-04-10T12:39:49.877Z,4.20
2023-04-10T12:42:22.700Z,3.70
2023-04-10T12:44:56.624Z,3.95
2023-04-10T12:47:26.228Z,3.75
2023-04-10T12:50:14.089Z,4.43
2023-04-10T12:52:44.877Z,3.97
2023-04-10T12:55:13.135Z,3.83
2023-04-10T12:57:44.226Z,4.18
2023-04-10T13:00:12.926Z,4.15
2023-04-10T13:02:42.604Z,3.90
2023-04-10T13:05:10.004Z,3.53
2023-04-10T13:07:37.448Z,3.35
2023-04-10T13:10:05.936Z,3.45
2023-04-10T13:12:32.762Z,2.92
2023-04-10T13:14:59.868Z,3.28
2023-04-10T13:17:26.611Z,2.70
2023-04-10T13:19:53.646Z,2.55
2023-04-10T13:22:20.862Z,3.47
2023-04-10T13:24:52.169Z,3.10
2023-04-10T13:27:21.101Z,2.78
2023-04-10T13:29:50.124Z,3.67
2023-04-10T13:34:43.504Z,3.45
2023-04-10T13:37:13.101Z,3.22
2023-04-10T13:39:39.680Z,3.20
2023-04-10T13:42:08.951Z,3.70
2023-04-10T13:45:47.116Z,2.97
2023-04-10T13:48:59.807Z,2.78
2023-04-10T13:51:29.811Z,2.90
2023-04-10T13:54:02.837Z,3.15
2023-04-10T13:56:30.258Z,2.97
2023-04-10T13:58:57.095Z,2.88
2023-04-10T14:01:26.414Z,2.55
2023-04-10T14:03:55.538Z,2.90
2023-04-10T14:06:22.244Z,3.30
2023-04-10T14:08:48.877Z,2.65
2023-04-10T14:11:15.521Z,3.00
2023-04-10T14:13:42.124Z,2.78
2023-04-10T14:16:08.813Z,3.13
2023-04-10T14:18:36.560Z,3.00
2023-04-10T14:21:03.565Z,3.25
2023-04-10T14:23:32.405Z,3.47
2023-04-10T14:25:59.220Z,2.92
2023-04-10T14:28:25.755Z,2.45
2023-04-10T14:30:52.404Z,2.72
2023-04-10T14:33:20.058Z,2.70
2023-04-10T14:35:47.724Z,3.03
2023-04-10T14:38:16.638Z,2.85
2023-04-10T14:40:45.748Z,3.10
2023-04-10T14:43:12.409Z,2.90
2023-04-10T14:45:38.980Z,3.20
2023-04-10T14:48:05.850Z,3.90
2023-04-10T14:50:33.108Z,3.28
2023-04-10T14:53:00.654Z,2.63
2023-04-10T14:55:32.201Z,2.83
2023-04-10T14:57:59.044Z,3.10
2023-04-10T15:00:26.128Z,3.15
2023-04-10T15:02:57.281Z,2.95
2023-04-10T15:05:25.557Z,3.10
2023-04-10T15:07:57.380Z,2.67
2023-04-10T15:10:24.059Z,2.95
2023-04-10T15:12:53.606Z,2.80
2023-04-10T15:15:22.686Z,3.00
2023-04-10T15:17:49.547Z,2.55
2023-04-10T15:20:16.291Z,2.65
2023-04-10T15:22:43.370Z,2.42
2023-04-10T15:25:12.130Z,2.80
2023-04-10T15:27:41.795Z,2.85
2023-04-10T15:30:11.578Z,2.88
2023-04-10T15:32:38.648Z,3.22
2023-04-10T15:35:06.049Z,2.90
2023-04-10T15:37:35.584Z,3.00
2023-04-10T15:40:04.796Z,2.50
2023-04-10T15:42:33.644Z,2.63
2023-04-10T15:45:00.711Z,2.88
2023-04-10T15:47:30.105Z,2.92
2023-04-10T15:49:57.299Z,2.83
2023-04-10T15:52:23.827Z,3.00
2023-04-10T15:54:51.402Z,3.15
2023-04-10T15:57:18.222Z,3.10
2023-04-10T15:59:47.110Z,3.22
2023-04-10T16:02:16.311Z,2.85
2023-04-10T16:04:45.372Z,3.03
2023-04-10T16:07:11.980Z,3.42
2023-04-10T16:09:40.822Z,3.08
2023-04-10T16:12:07.475Z,2.67
2023-04-10T16:14:36.497Z,3.10
2023-04-10T16:19:34.242Z,3.17
2023-04-10T16:22:00.785Z,3.03
2023-04-10T16:24:29.603Z,3.53
2023-04-10T16:26:58.472Z,3.30
2023-04-10T16:29:28.695Z,3.38
2023-04-10T16:31:55.458Z,3.13
2023-04-10T16:34:22.242Z,3.30
2023-04-10T16:36:48.829Z,3.75
2023-04-10T16:39:15.418Z,3.13
2023-04-10T16:41:42.010Z,3.75
2023-04-10T16:44:13.236Z,3.35
2023-04-10T16:46:39.928Z,3.70
2023-04-10T16:49:06.788Z,3.35
2023-04-10T16:51:33.406Z,3.30
2023-04-10T16:54:04.760Z,3.85
2023-04-10T16:56:32.614Z,3.28
2023-04-10T16:59:02.533Z,3.30
2023-04-10T17:01:31.597Z,3.40
2023-04-10T17:04:00.822Z,3.47
2023-04-10T17:06:29.657Z,3.28
2023-04-10T17:08:56.416Z,3.40
2023-04-10T17:11:23.324Z,3.20
2023-04-10T17:13:49.913Z,3.42
2023-04-10T17:16:16.538Z,3.90
2023-04-10T17:18:48.118Z,3.33
2023-04-10T17:21:14.789Z,3.90
2023-04-10T17:23:41.827Z,3.92
2023-04-10T17:26:15.887Z,3.65
2023-04-10T17:28:46.755Z,3.88
2023-04-10T17:31:14.296Z,3.88
2023-04-10T17:33:44.337Z,3.78
2023-04-10T17:36:15.331Z,4.07
2023-04-10T17:38:44.304Z,3.85
2023-04-10T17:41:16.027Z,4.30
2023-04-10T17:43:44.973Z,4.65
2023-04-10T17:48:45.579Z,4.88
2023-04-10T17:51:12.371Z,5.10
2023-04-10T17:53:42.031Z,5.50
2023-04-10T17:56:16.625Z,5.10
2023-04-10T17:58:45.665Z,5.18
2023-04-10T18:03:41.798Z,6.22
2023-04-10T18:08:38.255Z,6.80
2023-04-10T18:11:07.633Z,6.43
2023-04-10T18:13:34.424Z,6.03
2023-04-10T18:16:02.422Z,5.85
2023-04-10T18:18:31.478Z,6.22
2023-04-10T18:23:30.927Z,6.18
2023-04-10T18:25:57.497Z,5.43
2023-04-10T18:28:26.556Z,5.82
2023-04-10T18:33:27.352Z,4.80
2023-04-10T18:35:59.089Z,4.00
2023-04-10T18:38:26.723Z,4.40
2023-04-10T18:40:59.918Z,3.95
2023-04-10T18:43:29.409Z,3.50
2023-04-10T18:45:56.099Z,3.88
2023-04-10T18:48:27.824Z,4.18
2023-04-10T18:50:56.870Z,3.83
2023-04-10T18:53:26.414Z,5.10
2023-04-10T18:55:53.893Z,4.68
2023-04-10T18:58:21.773Z,4.10
2023-04-10T19:00:50.942Z,4.18
2023-04-10T19:03:22.407Z,4.15
2023-04-10T19:05:49.354Z,3.78
2023-04-10T19:08:17.110Z,4.43
2023-04-10T19:10:43.706Z,4.30
2023-04-10T19:13:12.462Z,3.80
2023-04-10T19:15:45.908Z,4.60
2023-04-10T19:18:16.514Z,4.40
2023-04-10T19:20:52.087Z,4.40
2023-04-10T19:23:24.888Z,4.20
2023-04-10T19:25:59.587Z,3.88
2023-04-10T19:28:26.395Z,4.68
2023-04-10T19:30:52.975Z,4.35
2023-04-10T19:33:20.464Z,3.97
2023-04-10T19:35:49.354Z,4.03
2023-04-10T19:38:20.692Z,4.50
2023-04-10T19:40:47.460Z,4.75
2023-04-10T19:43:14.074Z,4.47
2023-04-10T19:45:40.767Z,4.78
2023-04-10T19:48:08.158Z,4.25
2023-04-10T19:50:37.063Z,4.70
2023-04-10T19:53:04.394Z,4.85
2023-04-10T19:55:36.100Z,5.03
2023-04-10T19:58:02.699Z,6.30
2023-04-10T20:00:32.016Z,6.05
2023-04-10T20:03:00.920Z,4.93
2023-04-10T20:07:57.010Z,4.65
2023-04-10T20:10:23.732Z,4.95
2023-04-10T20:12:52.328Z,4.50
2023-04-10T20:15:20.545Z,5.43
2023-04-10T20:17:47.185Z,5.45
2023-04-10T20:20:13.915Z,5.78
2023-04-10T20:22:40.554Z,5.22
2023-04-10T20:25:10.143Z,5.82
2023-04-10T20:27:36.861Z,5.88
2023-04-10T20:30:04.250Z,5.80
2023-04-10T20:32:30.819Z,5.18
2023-04-10T20:34:59.737Z,6.05
2023-04-10T20:37:28.807Z,6.65
2023-04-10T20:42:24.188Z,9.35
2023-04-10T20:44:53.842Z,7.55
2023-04-10T20:47:20.390Z,8.07
2023-04-10T20:49:49.402Z,9.70
2023-04-10T20:52:16.110Z,9.27
2023-04-10T20:54:42.688Z,6.85
2023-04-10T20:57:09.456Z,5.88
2023-04-10T20:59:36.739Z,6.88
2023-04-10T21:02:03.672Z,5.93
2023-04-10T21:04:30.525Z,6.60
2023-04-10T21:06:57.403Z,7.38
2023-04-10T21:09:24.308Z,7.22
2023-04-10T21:11:53.190Z,7.28
2023-04-10T21:14:22.244Z,6.93
2023-04-10T21:16:48.912Z,6.65
2023-04-10T21:19:17.622Z,7.38
2023-04-10T21:21:44.460Z,6.72
2023-04-10T21:24:13.394Z,7.70
2023-04-10T21:26:39.964Z,7.15
2023-04-10T21:29:06.641Z,6.63
2023-04-10T21:31:35.855Z,6.93
2023-04-10T21:34:02.501Z,6.63
2023-04-10T21:36:31.825Z,6.65
2023-04-10T21:39:00.842Z,6.88
2023-04-10T21:41:27.427Z,6.93
2023-04-10T21:43:56.657Z,7.22
2023-04-10T21:46:23.492Z,6.97
2023-04-10T21:48:50.991Z,8.18
2023-04-10T21:51:17.750Z,7.40
2023-04-10T21:53:44.311Z,7.28
2023-04-10T21:56:20.793Z,7.28
2023-04-10T21:58:47.392Z,7.68
2023-04-10T22:01:14.074Z,7.13
2023-04-10T22:03:40.825Z,7.65
2023-04-10T22:06:09.061Z,6.90
2023-04-10T22:08:38.472Z,6.90
2023-04-10T22:11:06.077Z,7.72
2023-04-10T22:13:32.877Z,6.65
2023-04-10T22:16:07.117Z,7.00
2023-04-10T22:18:36.628Z,7.40
2023-04-10T22:21:05.964Z,6.75
2023-04-10T22:23:32.556Z,6.72
2023-04-10T22:26:04.408Z,6.78
2023-04-10T22:28:33.491Z,7.20
2023-04-10T22:31:05.658Z,7.68
2023-04-10T22:33:33.332Z,7.15
2023-04-10T22:35:59.982Z,6.88
2023-04-10T22:38:26.680Z,7.85
2023-04-10T22:40:56.546Z,7.75
2023-04-10T22:43:25.672Z,7.90
2023-04-10T22:48:24.581Z,7.78
2023-04-10T22:50:51.294Z,8.60
2023-04-10T22:53:20.822Z,8.18
2023-04-10T22:55:47.847Z,8.05
2023-04-10T22:58:16.989Z,8.18
2023-04-10T23:00:45.916Z,8.02
2023-04-10T23:03:12.657Z,8.02
2023-04-10T23:05:39.428Z,7.50
2023-04-10T23:08:06.085Z,8.25
2023-04-10T23:10:32.627Z,7.88
2023-04-10T23:12:59.493Z,8.80
2023-04-10T23:15:28.430Z,8.30
2023-04-10T23:17:55.127Z,8.55
2023-04-10T23:20:25.396Z,7.40
2023-04-10T23:22:52.120Z,8.63
2023-04-10T23:25:23.442Z,9.18
2023-04-10T23:27:53.555Z,9.00
2023-04-10T23:30:22.898Z,7.47
2023-04-10T23:32:49.520Z,7.55
2023-04-10T23:35:16.163Z,7.45
2023-04-10T23:37:42.735Z,7.88
2023-04-10T23:40:12.383Z,8.00
2023-04-10T23:42:38.968Z,8.00
2023-04-10T23:45:06.409Z,7.97
2023-04-10T23:47:35.281Z,8.50
2023-04-10T23:50:02.235Z,8.73
2023-04-10T23:52:29.037Z,7.32
2023-04-10T23:54:56.525Z,8.18
2023-04-10T23:57:25.323Z,8.68
2023-04-10T23:59:54.371Z,8.27
